EGKK

London Gatwick Airport

London, United Kingdom
METAR EGKK 162350Z 34005KT 9999 SCT013 03/01 Q1023
Observed Flight Rules
Dec-16 @ 23:50 UTC (20 minutes ago) Visual Flight Rules
Wind Visibility Clouds
340° at 5 knots 10,000+ meters
  • Scattered at 1,300' AGL
Temperatures Readings
Current 3°C / 37°F
Dewpoint 1°C / 34°F
Humidity 87%
Altimeter 30.21" Hg
Pressure 1023 hPa
Elevation 62
METAR EGKK 162350Z 34005KT 9999 SCT013 03/01 Q1023
Observed Flight Rules
Dec-16 @ 23:50 UTC
(20 minutes ago)
VFR
Wind Visibility
340° at 5 knots 10,000+ meters
Clouds
  • Scattered at 1,300' AGL
Temperature Dewpoint
3°C / 37°F 1°C / 34°F
Humidity Altimeter Pressure
87% 30.21" Hg 1023 hPa